KBTM/BTM METAR and TAF weather

Enter ICAO airport designator
Station Type Date Time Source
KBTM METAR 2019/10/21 04:53 UTC NOAA

KBTM 210453Z AUTO 00000KT 10SM BKN047 OVC060 M01/M06 A2994 RMK AO2 SLP156 T10061056


Station Type Date Time Source
KBTM Decoded METAR 2019/10/21 04:53 UTC NOAA

BERT MOONEY AIRPORT, MT, United States (KBTM) 45-58N 112-30W 1688M
Oct 21, 2019 - 12:53 AM EDT / 2019.10.21 0453 UTC
Wind: Calm:0
Visibility: 10 mile(s):0
Sky conditions: overcast
Temperature: 30.9 F (-0.6 C)
Dew Point: 21.9 F (-5.6 C)
Relative Humidity: 68%
Pressure (altimeter): 29.94 in. Hg (1013 hPa)
ob: KBTM 210453Z AUTO 00000KT 10SM BKN047 OVC060 M01/M06 A2994 RMK AO2 SLP156 T10061056
cycle: 5

Station Type Date Time Source
KBTM TAF 2019/10/20 18:36 UTC NOAA

TAF KBTM 201732Z 2018/2118 32010KT P6SM VCSH SCT020 OVC035
FM210700 16004KT 5SM -SHSN OVC035
FM211000 16003KT 2SM -SN OVC025
FM211300 VRB03KT P6SM VCSH SCT025 OVC050
FM211700 29012G20KT P6SM VCSH BKN050

Example: see airport list